createdAt,value
2022-09-18T00:02:24.502Z,1.15
2022-09-18T00:04:51.290Z,1.33
2022-09-18T00:07:18.141Z,2.67
2022-09-18T00:09:45.668Z,4.35
2022-09-18T00:12:12.399Z,1.60
2022-09-18T00:14:39.118Z,1.52
2022-09-18T00:17:08.960Z,1.02
2022-09-18T00:19:36.096Z,2.03
2022-09-18T00:22:02.800Z,1.70
2022-09-18T00:24:29.933Z,1.00
2022-09-18T00:26:56.651Z,1.63
2022-09-18T00:29:23.450Z,1.30
2022-09-18T00:31:50.234Z,1.42
2022-09-18T00:34:17.286Z,2.03
2022-09-18T00:36:44.471Z,1.23
2022-09-18T00:39:11.945Z,3.80
2022-09-18T00:41:42.969Z,3.33
2022-09-18T00:44:33.625Z,1.73
2022-09-18T00:47:26.426Z,0.70
2022-09-18T00:50:01.975Z,2.40
2022-09-18T00:52:36.219Z,1.90
2022-09-18T00:55:08.850Z,1.90
2022-09-18T00:57:41.275Z,2.58
2022-09-18T01:00:14.377Z,3.30
2022-09-18T01:02:42.377Z,1.80
2022-09-18T01:05:10.474Z,3.88
2022-09-18T01:07:49.875Z,2.50
2022-09-18T01:10:31.674Z,1.75
2022-09-18T01:13:27.431Z,3.63
2022-09-18T01:16:14.519Z,0.82
2022-09-18T01:18:58.283Z,1.98
2022-09-18T01:21:50.389Z,4.88
2022-09-18T01:25:03.300Z,3.53
2022-09-18T01:27:59.502Z,1.20
2022-09-18T01:30:26.375Z,1.88
2022-09-18T01:33:10.134Z,2.42
2022-09-18T01:35:43.061Z,1.42
2022-09-18T01:38:25.088Z,1.77
2022-09-18T01:41:21.684Z,2.20
2022-09-18T01:43:55.567Z,1.98
2022-09-18T01:46:24.179Z,3.65
2022-09-18T01:48:57.405Z,1.05
2022-09-18T01:51:29.663Z,1.35
2022-09-18T01:54:04.525Z,1.52
2022-09-18T01:56:38.355Z,1.23
2022-09-18T01:59:16.369Z,1.52
2022-09-18T02:01:46.344Z,2.78
2022-09-18T02:04:20.973Z,9.10
2022-09-18T02:07:14.309Z,4.30
2022-09-18T02:09:42.886Z,2.33
2022-09-18T02:12:14.373Z,1.08
2022-09-18T02:14:45.070Z,4.57
2022-09-18T02:17:21.698Z,1.40
2022-09-18T02:20:01.760Z,2.72
2022-09-18T02:22:32.361Z,1.42
2022-09-18T02:25:03.316Z,1.33
2022-09-18T02:27:32.132Z,2.85
2022-09-18T02:30:01.943Z,3.35
2022-09-18T02:32:28.950Z,2.08
2022-09-18T02:34:55.899Z,2.28
2022-09-18T02:37:37.844Z,2.00
2022-09-18T02:40:24.268Z,2.90
2022-09-18T02:43:09.641Z,2.30
2022-09-18T02:46:01.769Z,2.35
2022-09-18T02:48:43.868Z,1.70
2022-09-18T02:51:21.012Z,1.60
2022-09-18T02:54:06.171Z,6.38
2022-09-18T02:56:52.865Z,2.22
2022-09-18T02:59:28.623Z,2.10
2022-09-18T03:01:56.849Z,2.70
2022-09-18T03:04:26.178Z,2.28
2022-09-18T03:06:53.811Z,2.25
2022-09-18T03:09:20.885Z,2.22
2022-09-18T03:11:49.672Z,2.17
2022-09-18T03:14:16.863Z,2.03
2022-09-18T03:16:43.968Z,1.75
2022-09-18T03:19:11.896Z,1.48
2022-09-18T03:21:38.829Z,3.95
2022-09-18T03:24:05.722Z,1.75
2022-09-18T03:26:32.713Z,3.65
2022-09-18T03:28:59.831Z,2.17
2022-09-18T03:31:27.094Z,2.10
2022-09-18T03:33:54.262Z,1.40
2022-09-18T03:36:20.956Z,2.88
2022-09-18T03:38:47.661Z,1.83
2022-09-18T03:41:14.387Z,3.45
2022-09-18T03:43:41.895Z,3.00
2022-09-18T03:46:08.710Z,3.63
2022-09-18T03:48:35.595Z,3.47
2022-09-18T03:51:02.380Z,4.80
2022-09-18T03:53:29.115Z,3.90
2022-09-18T03:55:56.288Z,3.38
2022-09-18T03:58:23.383Z,4.97
2022-09-18T04:00:50.616Z,5.38
2022-09-18T04:03:17.837Z,4.28
2022-09-18T04:05:44.658Z,4.53
2022-09-18T04:08:12.212Z,9.05
2022-09-18T04:10:39.026Z,6.57
2022-09-18T04:13:05.714Z,3.83
2022-09-18T04:15:32.804Z,13.85
2022-09-18T04:17:59.510Z,23.42
2022-09-18T04:20:26.265Z,52.85
2022-09-18T04:22:52.987Z,25.13
2022-09-18T04:25:19.740Z,17.85
2022-09-18T04:27:46.839Z,60.30
2022-09-18T04:30:14.390Z,11.00
2022-09-18T04:32:43.574Z,15.93
2022-09-18T04:35:10.460Z,6.20
2022-09-18T04:37:37.374Z,5.93
2022-09-18T04:40:05.453Z,4.68
2022-09-18T04:42:32.572Z,6.82
2022-09-18T04:44:59.319Z,4.97
2022-09-18T04:47:26.026Z,5.03
2022-09-18T04:49:53.889Z,6.18
2022-09-18T04:52:20.615Z,5.50
2022-09-18T04:54:47.279Z,4.97
2022-09-18T04:57:14.481Z,6.57
2022-09-18T04:59:41.183Z,6.60
2022-09-18T05:02:10.844Z,5.55
2022-09-18T05:04:37.604Z,5.55
2022-09-18T05:07:05.173Z,6.65
2022-09-18T05:09:32.337Z,6.22
2022-09-18T05:11:59.578Z,6.88
2022-09-18T05:14:26.599Z,3.90
2022-09-18T05:16:53.799Z,4.65
2022-09-18T05:19:20.525Z,4.47
2022-09-18T05:21:51.147Z,4.63
2022-09-18T05:24:18.582Z,4.60
2022-09-18T05:26:45.701Z,3.55
2022-09-18T05:29:12.925Z,2.60
2022-09-18T05:31:41.879Z,2.05
2022-09-18T05:34:09.229Z,1.85
2022-09-18T05:36:36.096Z,2.47
2022-09-18T05:39:02.934Z,4.70
2022-09-18T05:41:30.079Z,5.45
2022-09-18T05:43:56.909Z,5.40
2022-09-18T05:46:23.787Z,5.82
2022-09-18T05:48:51.021Z,4.05
2022-09-18T05:51:17.964Z,7.10
2022-09-18T05:53:48.414Z,6.80
2022-09-18T05:56:16.571Z,9.35
2022-09-18T05:58:43.769Z,3.58
2022-09-18T06:01:10.643Z,13.63
2022-09-18T06:03:37.379Z,12.60
2022-09-18T06:06:04.366Z,6.07
2022-09-18T06:08:31.088Z,10.30
2022-09-18T06:11:01.084Z,8.10
2022-09-18T06:13:28.216Z,17.45
2022-09-18T06:15:56.076Z,4.82
2022-09-18T06:18:22.970Z,5.03
2022-09-18T06:20:55.712Z,4.97
2022-09-18T06:23:27.302Z,6.03
2022-09-18T06:26:02.072Z,3.83
2022-09-18T06:28:30.842Z,2.83
2022-09-18T06:30:58.964Z,3.75
2022-09-18T06:33:25.779Z,3.15
2022-09-18T06:35:53.012Z,2.75
2022-09-18T06:38:19.732Z,2.13
2022-09-18T06:40:54.462Z,1.42
2022-09-18T06:43:21.471Z,2.22
2022-09-18T06:45:53.177Z,2.72
2022-09-18T06:48:20.497Z,1.70
2022-09-18T06:50:54.693Z,1.63
2022-09-18T06:53:21.829Z,0.90
2022-09-18T06:55:49.277Z,1.50
2022-09-18T06:58:17.593Z,2.42
2022-09-18T07:00:45.505Z,3.85
2022-09-18T07:03:12.839Z,2.80
2022-09-18T07:05:42.690Z,1.48
2022-09-18T07:08:09.984Z,4.60
2022-09-18T07:10:37.068Z,0.88
2022-09-18T07:13:04.639Z,3.33
2022-09-18T07:15:31.845Z,0.93
2022-09-18T07:18:00.276Z,3.17
2022-09-18T07:20:27.676Z,1.25
2022-09-18T07:22:57.201Z,1.45
2022-09-18T07:25:24.691Z,1.80
2022-09-18T07:27:51.565Z,0.65
2022-09-18T07:30:19.117Z,1.25
2022-09-18T07:32:46.500Z,2.85
2022-09-18T07:35:13.776Z,0.82
2022-09-18T07:37:40.933Z,0.90
2022-09-18T07:40:09.606Z,1.45
2022-09-18T07:42:36.552Z,0.50
2022-09-18T07:45:04.214Z,1.20
2022-09-18T07:47:31.465Z,1.00
2022-09-18T07:49:58.612Z,1.48
2022-09-18T07:52:25.758Z,0.77
2022-09-18T07:54:52.895Z,0.93
2022-09-18T07:57:19.660Z,0.93
2022-09-18T07:59:46.798Z,1.67
2022-09-18T08:02:14.155Z,2.67
2022-09-18T08:04:41.019Z,2.88
2022-09-18T08:07:07.974Z,0.60
2022-09-18T08:09:34.666Z,0.55
2022-09-18T08:12:02.814Z,1.75
2022-09-18T08:14:30.063Z,0.93
2022-09-18T08:16:57.845Z,0.63
2022-09-18T08:19:25.032Z,1.67
2022-09-18T08:21:51.834Z,1.27
2022-09-18T08:24:18.972Z,0.60
2022-09-18T08:26:46.006Z,2.47
2022-09-18T08:29:19.241Z,1.45
2022-09-18T08:31:47.340Z,1.52
2022-09-18T08:34:14.228Z,0.93
2022-09-18T08:36:41.405Z,1.65
2022-09-18T08:39:08.864Z,0.63
2022-09-18T08:42:10.218Z,0.40
2022-09-18T08:44:50.314Z,0.65
2022-09-18T08:47:38.304Z,0.60
2022-09-18T08:50:27.218Z,0.52
2022-09-18T08:53:11.680Z,0.98
2022-09-18T08:55:42.823Z,0.65
2022-09-18T08:58:20.376Z,0.30
2022-09-18T09:00:59.192Z,1.17
2022-09-18T09:04:00.105Z,0.60
2022-09-18T09:06:26.948Z,0.32
2022-09-18T09:09:28.456Z,1.77
2022-09-18T09:12:22.292Z,0.40
2022-09-18T09:15:31.573Z,0.20
2022-09-18T09:17:58.269Z,0.10
2022-09-18T09:20:42.345Z,0.55
2022-09-18T09:23:18.350Z,0.70
2022-09-18T09:26:03.302Z,0.20
2022-09-18T09:28:45.964Z,1.25
2022-09-18T09:31:15.920Z,0.40
2022-09-18T09:33:58.837Z,1.17
2022-09-18T09:36:29.383Z,2.80
2022-09-18T09:39:15.229Z,0.20
2022-09-18T09:41:48.918Z,0.10
2022-09-18T09:44:37.245Z,1.75
2022-09-18T09:47:38.224Z,1.00
2022-09-18T09:50:53.620Z,0.10
2022-09-18T09:53:24.601Z,1.65
2022-09-18T09:56:18.008Z,0.50
2022-09-18T09:59:03.920Z,0.35
2022-09-18T10:01:39.995Z,0.55
2022-09-18T10:04:25.800Z,0.20
2022-09-18T10:07:02.935Z,0.20
2022-09-18T10:09:40.406Z,1.40
2022-09-18T10:12:22.630Z,0.60
2022-09-18T10:14:51.998Z,0.52
2022-09-18T10:17:21.490Z,0.50
2022-09-18T10:19:49.417Z,0.22
2022-09-18T10:22:20.369Z,1.27
2022-09-18T10:24:56.052Z,0.28
2022-09-18T10:27:23.387Z,0.52
2022-09-18T10:29:53.824Z,1.58
2022-09-18T10:32:44.052Z,1.63
2022-09-18T10:35:28.893Z,0.10
2022-09-18T10:37:56.661Z,1.58
2022-09-18T10:40:33.020Z,0.55
2022-09-18T10:43:00.744Z,0.40
2022-09-18T10:45:41.413Z,0.85
2022-09-18T10:48:23.933Z,0.00
2022-09-18T10:50:56.324Z,0.13
2022-09-18T10:53:29.401Z,0.55
2022-09-18T10:56:04.929Z,0.08
2022-09-18T10:58:33.677Z,0.13
2022-09-18T11:01:07.906Z,1.73
2022-09-18T11:03:40.407Z,0.10
2022-09-18T11:06:25.460Z,0.35
2022-09-18T11:08:56.184Z,0.22
2022-09-18T11:11:27.926Z,0.00
2022-09-18T11:14:08.006Z,0.05
2022-09-18T11:16:47.561Z,0.30
2022-09-18T11:19:30.747Z,0.00
2022-09-18T11:22:02.491Z,0.10
2022-09-18T11:24:32.086Z,0.45
2022-09-18T11:27:16.705Z,0.30
2022-09-18T11:29:43.513Z,0.93
2022-09-18T11:32:16.431Z,0.20
2022-09-18T11:35:13.259Z,0.10
2022-09-18T11:37:54.467Z,0.25
2022-09-18T11:40:32.074Z,0.70
2022-09-18T11:43:02.888Z,0.30
2022-09-18T11:45:34.916Z,0.95
2022-09-18T11:48:16.133Z,1.05
2022-09-18T11:50:42.991Z,0.52
2022-09-18T11:53:27.867Z,0.30
2022-09-18T11:56:24.732Z,0.85
2022-09-18T11:59:00.469Z,0.38
2022-09-18T12:01:47.874Z,0.68
2022-09-18T12:04:52.078Z,0.57
2022-09-18T12:07:44.252Z,0.10
2022-09-18T12:10:14.003Z,0.10
2022-09-18T12:12:51.119Z,0.20
2022-09-18T12:15:26.566Z,3.55
2022-09-18T12:17:56.112Z,4.57
2022-09-18T12:20:35.879Z,0.32
2022-09-18T12:23:03.382Z,0.15
2022-09-18T12:26:04.012Z,1.13
2022-09-18T12:29:22.228Z,0.38
2022-09-18T12:31:57.879Z,0.13
2022-09-18T12:34:43.687Z,0.15
2022-09-18T12:37:19.528Z,1.50
2022-09-18T12:39:52.945Z,0.60
2022-09-18T12:42:58.707Z,0.10
2022-09-18T12:45:53.244Z,0.20
2022-09-18T12:48:20.070Z,0.28
2022-09-18T12:50:49.911Z,0.50
2022-09-18T12:53:22.992Z,0.20
2022-09-18T12:56:09.968Z,0.10
2022-09-18T12:59:14.303Z,0.28
2022-09-18T13:01:52.466Z,0.28
2022-09-18T13:04:33.437Z,0.10
2022-09-18T13:07:16.962Z,3.63
2022-09-18T13:09:55.627Z,0.10
2022-09-18T13:12:41.839Z,0.30
2022-09-18T13:15:21.787Z,0.40
2022-09-18T13:17:53.931Z,0.45
2022-09-18T13:20:32.081Z,0.20
2022-09-18T13:23:00.802Z,0.10
2022-09-18T13:25:39.368Z,1.30
2022-09-18T13:28:14.307Z,0.20
2022-09-18T13:30:41.908Z,0.52
2022-09-18T13:33:26.707Z,0.32
2022-09-18T13:35:56.464Z,0.45
2022-09-18T13:38:26.964Z,0.30
2022-09-18T13:41:09.052Z,0.55
2022-09-18T13:43:46.896Z,0.10
2022-09-18T13:46:29.344Z,0.98
2022-09-18T13:48:58.243Z,0.10
2022-09-18T13:51:31.434Z,0.28
2022-09-18T13:54:22.538Z,0.30
2022-09-18T13:57:19.002Z,1.27
2022-09-18T14:00:09.400Z,0.63
2022-09-18T14:02:38.876Z,0.30
2022-09-18T14:05:27.448Z,0.20
2022-09-18T14:08:04.095Z,0.10
2022-09-18T14:10:54.896Z,0.32
2022-09-18T14:13:34.799Z,0.30
2022-09-18T14:16:11.186Z,0.93
2022-09-18T14:18:43.959Z,0.55
2022-09-18T14:21:19.438Z,0.20
2022-09-18T14:23:46.186Z,0.30
2022-09-18T14:26:31.241Z,0.10
2022-09-18T14:29:10.167Z,2.20
2022-09-18T14:31:54.247Z,0.52
2022-09-18T14:34:24.372Z,0.20
2022-09-18T14:37:00.922Z,0.40
2022-09-18T14:39:37.617Z,0.47
2022-09-18T14:42:12.495Z,0.57
2022-09-18T14:44:39.944Z,0.45
2022-09-18T14:47:19.065Z,1.83
2022-09-18T14:49:48.292Z,0.32
2022-09-18T14:52:30.397Z,0.20
2022-09-18T14:55:00.070Z,1.17
2022-09-18T14:57:36.866Z,0.38
2022-09-18T15:00:04.862Z,3.00
2022-09-18T15:02:34.011Z,0.28
2022-09-18T15:05:08.747Z,0.93
2022-09-18T15:07:38.129Z,0.45
2022-09-18T15:10:07.750Z,0.40
2022-09-18T15:12:36.031Z,0.52
2022-09-18T15:15:24.240Z,0.30
2022-09-18T15:17:51.358Z,0.32
2022-09-18T15:20:18.569Z,0.30
2022-09-18T15:22:45.360Z,0.50
2022-09-18T15:25:13.673Z,0.45
2022-09-18T15:27:42.687Z,0.60
2022-09-18T15:30:19.655Z,1.65
2022-09-18T15:33:04.063Z,0.10
2022-09-18T15:35:36.045Z,0.20
2022-09-18T15:38:07.052Z,0.10
2022-09-18T15:40:36.537Z,0.20
2022-09-18T15:43:06.311Z,0.40
2022-09-18T15:45:35.529Z,0.32
2022-09-18T15:48:34.077Z,0.75
2022-09-18T15:51:16.192Z,0.20
2022-09-18T15:54:02.016Z,0.38
2022-09-18T15:56:31.299Z,0.95
2022-09-18T15:58:59.866Z,1.58
2022-09-18T16:01:36.178Z,3.50
2022-09-18T16:04:15.147Z,1.42
2022-09-18T16:06:53.753Z,1.25
2022-09-18T16:09:33.537Z,0.88
2022-09-18T16:12:00.918Z,1.42
2022-09-18T16:14:43.598Z,1.50
2022-09-18T16:17:45.843Z,1.90
2022-09-18T16:20:32.777Z,2.65
2022-09-18T16:23:17.076Z,4.10
2022-09-18T16:25:44.623Z,3.63
2022-09-18T16:28:26.936Z,3.78
2022-09-18T16:30:54.497Z,4.13
2022-09-18T16:33:24.753Z,3.13
2022-09-18T16:36:00.654Z,2.92
2022-09-18T16:38:27.780Z,2.55
2022-09-18T16:40:56.093Z,5.15
2022-09-18T16:43:22.845Z,5.20
2022-09-18T16:45:50.440Z,3.08
2022-09-18T16:48:18.316Z,3.17
2022-09-18T16:50:45.666Z,4.22
2022-09-18T16:53:13.050Z,3.17
2022-09-18T16:55:45.036Z,2.95
2022-09-18T16:58:12.787Z,3.42
2022-09-18T17:00:39.812Z,3.40
2022-09-18T17:03:07.132Z,3.95
2022-09-18T17:05:34.733Z,4.18
2022-09-18T17:08:03.989Z,6.47
2022-09-18T17:10:34.101Z,3.20
2022-09-18T17:13:01.576Z,5.30
2022-09-18T17:15:29.097Z,4.65
2022-09-18T17:17:56.823Z,3.88
2022-09-18T17:20:23.680Z,3.00
2022-09-18T17:22:51.470Z,3.90
2022-09-18T17:25:19.086Z,7.20
2022-09-18T17:27:47.694Z,3.47
2022-09-18T17:30:14.883Z,4.70
2022-09-18T17:32:41.915Z,4.50
2022-09-18T17:35:09.108Z,5.35
2022-09-18T17:37:35.861Z,7.47
2022-09-18T17:40:04.035Z,7.10
2022-09-18T17:42:31.413Z,4.78
2022-09-18T17:44:58.126Z,4.90
2022-09-18T17:47:24.936Z,4.05
2022-09-18T17:49:52.190Z,7.78
2022-09-18T17:52:18.897Z,5.10
2022-09-18T17:54:46.175Z,4.78
2022-09-18T17:57:13.105Z,4.20
2022-09-18T17:59:44.901Z,6.10
2022-09-18T18:02:13.033Z,4.45
2022-09-18T18:04:39.872Z,4.45
2022-09-18T18:07:07.162Z,3.45
2022-09-18T18:09:37.405Z,5.82
2022-09-18T18:12:05.483Z,7.45
2022-09-18T18:14:34.443Z,8.70
2022-09-18T18:17:01.227Z,4.38
2022-09-18T18:19:28.314Z,6.82
2022-09-18T18:21:55.783Z,7.85
2022-09-18T18:24:22.872Z,8.50
2022-09-18T18:26:49.932Z,4.95
2022-09-18T18:29:18.883Z,8.85
2022-09-18T18:31:47.975Z,5.05
2022-09-18T18:34:17.579Z,5.88
2022-09-18T18:36:44.517Z,8.40
2022-09-18T18:39:12.999Z,5.90
2022-09-18T18:41:40.873Z,4.78
2022-09-18T18:44:08.265Z,5.35
2022-09-18T18:46:37.313Z,4.70
2022-09-18T18:49:09.065Z,4.60
2022-09-18T18:51:45.180Z,5.75
2022-09-18T18:54:14.159Z,5.18
2022-09-18T18:56:41.434Z,2.95
2022-09-18T18:59:11.661Z,2.58
2022-09-18T19:01:39.550Z,2.15
2022-09-18T19:04:09.287Z,2.80
2022-09-18T19:06:38.949Z,4.57
2022-09-18T19:09:19.460Z,2.45
2022-09-18T19:11:50.901Z,3.97
2022-09-18T19:14:24.181Z,5.03
2022-09-18T19:16:52.442Z,4.28
2022-09-18T19:19:21.634Z,3.55
2022-09-18T19:21:48.405Z,1.50
2022-09-18T19:24:18.515Z,2.10
2022-09-18T19:26:46.757Z,2.35
2022-09-18T19:29:16.360Z,2.03
2022-09-18T19:31:45.406Z,1.50
2022-09-18T19:34:14.657Z,1.85
2022-09-18T19:36:47.152Z,1.40
2022-09-18T19:39:14.816Z,3.78
2022-09-18T19:42:10.158Z,1.55
2022-09-18T19:44:47.516Z,1.55
2022-09-18T19:47:28.238Z,3.13
2022-09-18T19:49:59.697Z,2.33
2022-09-18T19:52:28.737Z,1.92
2022-09-18T19:54:56.879Z,2.15
2022-09-18T19:57:24.491Z,2.15
2022-09-18T19:59:57.026Z,1.20
2022-09-18T20:02:25.426Z,2.42
2022-09-18T20:04:52.727Z,1.80
2022-09-18T20:07:19.930Z,4.18
2022-09-18T20:09:46.685Z,3.60
2022-09-18T20:12:13.720Z,3.00
2022-09-18T20:14:40.554Z,2.80
2022-09-18T20:17:08.365Z,2.00
2022-09-18T20:19:36.071Z,1.40
2022-09-18T20:22:04.003Z,1.15
2022-09-18T20:24:31.786Z,5.45
2022-09-18T20:26:59.142Z,1.40
2022-09-18T20:29:27.510Z,2.00
2022-09-18T20:31:54.449Z,2.80
2022-09-18T20:34:23.171Z,4.50
2022-09-18T20:36:52.024Z,2.15
2022-09-18T20:39:19.321Z,1.92
2022-09-18T20:41:46.517Z,1.45
2022-09-18T20:44:13.494Z,1.00
2022-09-18T20:46:40.539Z,0.88
2022-09-18T20:49:07.847Z,1.13
2022-09-18T20:51:35.887Z,0.80
2022-09-18T20:54:04.853Z,1.67
2022-09-18T20:56:36.127Z,1.77
2022-09-18T20:59:05.124Z,1.10
2022-09-18T21:01:35.402Z,2.47
2022-09-18T21:04:03.167Z,1.27
2022-09-18T21:06:32.992Z,2.30
2022-09-18T21:09:04.336Z,2.15
2022-09-18T21:11:34.605Z,0.98
2022-09-18T21:14:03.245Z,0.60
2022-09-18T21:16:33.926Z,2.53
2022-09-18T21:19:02.036Z,4.13
2022-09-18T21:21:30.886Z,1.80
2022-09-18T21:24:04.278Z,0.63
2022-09-18T21:26:41.324Z,1.10
2022-09-18T21:29:23.554Z,0.98
2022-09-18T21:31:53.140Z,0.93
2022-09-18T21:34:27.123Z,1.45
2022-09-18T21:36:58.747Z,1.48
2022-09-18T21:39:28.331Z,1.10
2022-09-18T21:41:56.567Z,1.77
2022-09-18T21:44:27.239Z,0.90
2022-09-18T21:46:56.832Z,0.35
2022-09-18T21:49:23.730Z,0.70
2022-09-18T21:51:54.780Z,0.60
2022-09-18T21:54:23.159Z,2.22
2022-09-18T21:56:54.114Z,4.00
2022-09-18T21:59:31.588Z,1.60
2022-09-18T22:01:59.133Z,1.70
2022-09-18T22:04:29.012Z,5.80
2022-09-18T22:06:57.651Z,3.85
2022-09-18T22:09:27.743Z,2.22
2022-09-18T22:11:55.523Z,2.08
2022-09-18T22:14:29.826Z,4.03
2022-09-18T22:16:58.273Z,2.63
2022-09-18T22:19:25.346Z,1.80
2022-09-18T22:21:52.460Z,3.10
2022-09-18T22:24:25.331Z,0.90
2022-09-18T22:26:58.338Z,1.27
2022-09-18T22:29:28.241Z,2.15
2022-09-18T22:31:55.787Z,1.35
2022-09-18T22:34:24.608Z,2.45
2022-09-18T22:36:52.003Z,1.70
2022-09-18T22:39:20.596Z,7.10
2022-09-18T22:41:48.649Z,3.47
2022-09-18T22:44:15.946Z,3.35
2022-09-18T22:46:45.451Z,3.17
2022-09-18T22:49:13.935Z,4.32
2022-09-18T22:51:41.114Z,3.35
2022-09-18T22:54:08.440Z,3.80
2022-09-18T22:56:44.889Z,3.40
2022-09-18T22:59:13.993Z,4.28
2022-09-18T23:01:51.105Z,3.20
2022-09-18T23:04:20.710Z,3.28
2022-09-18T23:06:48.958Z,3.50
2022-09-18T23:09:17.761Z,4.07
2022-09-18T23:11:46.598Z,2.80
2022-09-18T23:14:17.119Z,7.35
2022-09-18T23:16:44.228Z,4.97
2022-09-18T23:19:18.718Z,3.65
2022-09-18T23:21:45.925Z,4.82
2022-09-18T23:24:13.028Z,4.20
2022-09-18T23:26:42.873Z,6.15
2022-09-18T23:29:13.009Z,6.78
2022-09-18T23:31:42.712Z,3.50
2022-09-18T23:34:21.062Z,3.35
2022-09-18T23:36:50.187Z,2.38
2022-09-18T23:39:22.292Z,2.95
2022-09-18T23:41:50.059Z,3.47
2022-09-18T23:44:18.656Z,3.08
2022-09-18T23:46:47.883Z,2.63
2022-09-18T23:49:16.281Z,3.40
2022-09-18T23:51:48.066Z,2.92
2022-09-18T23:54:23.962Z,2.97
2022-09-18T23:56:51.703Z,4.50
2022-09-18T23:59:22.795Z,3.53
